sensor_id;sensor_type;location;lat;lon;timestamp;pressure;altitude;pressure_sealevel;temperature;humidity
30949;BME280;17637;51.984;21.208;2023-01-29T00:00:08;101170.97;;;-1.60;61.80
30949;BME280;17637;51.984;21.208;2023-01-29T00:02:41;101144.69;;;-1.64;61.90
30949;BME280;17637;51.984;21.208;2023-01-29T00:05:13;101163.31;;;-1.60;61.95
30949;BME280;17637;51.984;21.208;2023-01-29T00:07:58;101170.84;;;-1.46;61.67
30949;BME280;17637;51.984;21.208;2023-01-29T00:10:30;101153.13;;;-1.57;61.80
30949;BME280;17637;51.984;21.208;2023-01-29T00:13:02;101154.03;;;-1.65;61.12
30949;BME280;17637;51.984;21.208;2023-01-29T00:15:34;101156.66;;;-1.77;61.41
30949;BME280;17637;51.984;21.208;2023-01-29T00:18:06;101154.06;;;-1.69;61.70
30949;BME280;17637;51.984;21.208;2023-01-29T00:20:42;101164.16;;;-1.58;61.59
30949;BME280;17637;51.984;21.208;2023-01-29T00:23:14;101142.16;;;-1.69;62.07
30949;BME280;17637;51.984;21.208;2023-01-29T00:25:46;101141.19;;;-1.52;62.91
30949;BME280;17637;51.984;21.208;2023-01-29T00:28:18;101115.97;;;-1.83;61.42
30949;BME280;17637;51.984;21.208;2023-01-29T00:30:50;101124.34;;;-1.73;61.56
30949;BME280;17637;51.984;21.208;2023-01-29T00:33:22;101119.34;;;-1.83;61.85
30949;BME280;17637;51.984;21.208;2023-01-29T00:35:54;101122.63;;;-1.67;61.88
30949;BME280;17637;51.984;21.208;2023-01-29T00:38:27;101127.69;;;-1.63;61.40
30949;BME280;17637;51.984;21.208;2023-01-29T00:41:13;101119.19;;;-1.66;61.69
30949;BME280;17637;51.984;21.208;2023-01-29T00:44:05;101119.19;;;-1.62;62.02
30949;BME280;17637;51.984;21.208;2023-01-29T00:46:56;101100.75;;;-1.94;61.91
30949;BME280;17637;51.984;21.208;2023-01-29T00:49:28;101095.69;;;-2.00;61.97
30949;BME280;17637;51.984;21.208;2023-01-29T00:52:01;101095.56;;;-1.83;62.08
30949;BME280;17637;51.984;21.208;2023-01-29T00:54:58;101120.94;;;-1.69;61.37
30949;BME280;17637;51.984;21.208;2023-01-29T00:57:31;101112.44;;;-1.71;61.52
30949;BME280;17637;51.984;21.208;2023-01-29T01:00:05;101120.03;;;-1.65;61.23
30949;BME280;17637;51.984;21.208;2023-01-29T01:02:38;101044.94;;;-2.23;61.73
30949;BME280;17637;51.984;21.208;2023-01-29T01:05:28;101121.94;;;-1.89;61.69
30949;BME280;17637;51.984;21.208;2023-01-29T01:08:00;101135.44;;;-1.74;61.77
30949;BME280;17637;51.984;21.208;2023-01-29T01:10:32;101111.63;;;-1.75;62.19
30949;BME280;17637;51.984;21.208;2023-01-29T01:13:05;101087.97;;;-1.89;62.19
30949;BME280;17637;51.984;21.208;2023-01-29T01:15:39;101099.00;;;-1.90;62.21
30949;BME280;17637;51.984;21.208;2023-01-29T01:18:11;101115.84;;;-1.72;62.26
30949;BME280;17637;51.984;21.208;2023-01-29T01:20:45;101051.63;;;-2.08;63.25
30949;BME280;17637;51.984;21.208;2023-01-29T01:23:22;101038.91;;;-2.10;62.78
30949;BME280;17637;51.984;21.208;2023-01-29T01:25:54;101094.66;;;-1.74;62.39
30949;BME280;17637;51.984;21.208;2023-01-29T01:28:26;101093.81;;;-1.76;62.94
30949;BME280;17637;51.984;21.208;2023-01-29T01:31:07;101094.69;;;-1.82;62.55
30949;BME280;17637;51.984;21.208;2023-01-29T01:33:39;101089.59;;;-1.79;62.78
30949;BME280;17637;51.984;21.208;2023-01-29T01:36:11;101083.03;;;-2.11;62.50
30949;BME280;17637;51.984;21.208;2023-01-29T01:38:44;101102.56;;;-2.08;62.63
30949;BME280;17637;51.984;21.208;2023-01-29T01:41:19;101098.19;;;-1.94;62.87
30949;BME280;17637;51.984;21.208;2023-01-29T01:44:00;101096.47;;;-1.90;62.62
30949;BME280;17637;51.984;21.208;2023-01-29T01:46:36;101091.38;;;-1.90;63.20
30949;BME280;17637;51.984;21.208;2023-01-29T01:49:14;101084.66;;;-2.01;63.00
30949;BME280;17637;51.984;21.208;2023-01-29T01:51:50;101064.31;;;-2.02;62.52
30949;BME280;17637;51.984;21.208;2023-01-29T01:54:26;101082.00;;;-1.85;62.58
30949;BME280;17637;51.984;21.208;2023-01-29T01:57:04;101082.78;;;-1.80;61.79
30949;BME280;17637;51.984;21.208;2023-01-29T01:59:42;101058.34;;;-2.03;61.83
30949;BME280;17637;51.984;21.208;2023-01-29T02:02:17;101096.50;;;-1.93;62.00
30949;BME280;17637;51.984;21.208;2023-01-29T02:05:09;101083.72;;;-1.89;62.31
30949;BME280;17637;51.984;21.208;2023-01-29T02:08:01;101073.50;;;-1.86;62.31
30949;BME280;17637;51.984;21.208;2023-01-29T02:10:52;101081.97;;;-1.80;61.54
30949;BME280;17637;51.984;21.208;2023-01-29T02:13:25;101084.47;;;-1.77;62.47
30949;BME280;17637;51.984;21.208;2023-01-29T02:15:57;101066.69;;;-1.85;62.01
30949;BME280;17637;51.984;21.208;2023-01-29T02:18:29;101027.06;;;-2.14;62.61
30949;BME280;17637;51.984;21.208;2023-01-29T02:29:54;101085.09;;;-1.52;62.65
30949;BME280;17637;51.984;21.208;2023-01-29T02:33:20;101088.47;;;-1.52;62.87
30949;BME280;17637;51.984;21.208;2023-01-29T02:44:54;101059.81;;;-1.77;62.68
30949;BME280;17637;51.984;21.208;2023-01-29T02:47:34;101058.09;;;-1.75;62.81
30949;BME280;17637;51.984;21.208;2023-01-29T02:55:48;101053.25;;;-2.03;62.84
30949;BME280;17637;51.984;21.208;2023-01-29T03:01:10;101043.81;;;-1.88;63.75
30949;BME280;17637;51.984;21.208;2023-01-29T03:03:47;101065.78;;;-1.76;62.90
30949;BME280;17637;51.984;21.208;2023-01-29T03:06:34;101077.69;;;-1.80;62.96
30949;BME280;17637;51.984;21.208;2023-01-29T03:11:55;101016.69;;;-1.95;63.41
30949;BME280;17637;51.984;21.208;2023-01-29T03:14:31;101067.56;;;-1.88;63.08
30949;BME280;17637;51.984;21.208;2023-01-29T03:17:28;101052.31;;;-1.89;63.76
30949;BME280;17637;51.984;21.208;2023-01-29T03:20:07;101059.06;;;-1.85;63.17
30949;BME280;17637;51.984;21.208;2023-01-29T03:22:48;100999.94;;;-2.21;63.75
30949;BME280;17637;51.984;21.208;2023-01-29T03:25:23;100988.03;;;-2.19;64.07
30949;BME280;17637;51.984;21.208;2023-01-29T03:28:17;101047.06;;;-1.77;63.81
30949;BME280;17637;51.984;21.208;2023-01-29T03:31:10;101043.66;;;-1.73;63.51
30949;BME280;17637;51.984;21.208;2023-01-29T03:36:40;101036.09;;;-1.84;64.44
30949;BME280;17637;51.984;21.208;2023-01-29T03:39:16;101028.31;;;-1.67;63.43
30949;BME280;17637;51.984;21.208;2023-01-29T03:41:59;101015.56;;;-1.70;63.25
30949;BME280;17637;51.984;21.208;2023-01-29T03:44:38;101047.81;;;-1.64;63.17
30949;BME280;17637;51.984;21.208;2023-01-29T04:02:12;101040.31;;;-1.78;64.07
30949;BME280;17637;51.984;21.208;2023-01-29T04:04:47;101053.13;;;-1.89;64.15
30949;BME280;17637;51.984;21.208;2023-01-29T04:07:23;101032.66;;;-1.76;64.00
30949;BME280;17637;51.984;21.208;2023-01-29T04:10:03;101034.41;;;-1.85;64.79
30949;BME280;17637;51.984;21.208;2023-01-29T04:12:51;101036.16;;;-1.88;63.73
30949;BME280;17637;51.984;21.208;2023-01-29T04:15:28;101018.38;;;-1.98;63.68
30949;BME280;17637;51.984;21.208;2023-01-29T04:18:02;101019.97;;;-1.84;64.21
30949;BME280;17637;51.984;21.208;2023-01-29T04:20:34;101026.78;;;-1.86;64.60
30949;BME280;17637;51.984;21.208;2023-01-29T04:23:22;100984.47;;;-2.03;64.21
30949;BME280;17637;51.984;21.208;2023-01-29T04:31:52;101026.78;;;-1.83;64.66
30949;BME280;17637;51.984;21.208;2023-01-29T04:37:35;100996.19;;;-1.83;64.73
30949;BME280;17637;51.984;21.208;2023-01-29T04:40:33;101010.41;;;-1.63;64.24
30949;BME280;17637;51.984;21.208;2023-01-29T04:43:23;101004.66;;;-1.81;64.29
30949;BME280;17637;51.984;21.208;2023-01-29T04:46:18;101013.88;;;-1.71;64.11
30949;BME280;17637;51.984;21.208;2023-01-29T04:51:50;101010.75;;;-1.94;64.49
30949;BME280;17637;51.984;21.208;2023-01-29T04:57:15;101002.91;;;-1.77;65.07
30949;BME280;17637;51.984;21.208;2023-01-29T05:00:12;100992.81;;;-1.85;64.56
30949;BME280;17637;51.984;21.208;2023-01-29T05:02:47;100980.88;;;-1.82;64.83
30949;BME280;17637;51.984;21.208;2023-01-29T05:05:20;100983.34;;;-1.74;64.94
30949;BME280;17637;51.984;21.208;2023-01-29T05:07:53;100993.56;;;-1.75;65.08
30949;BME280;17637;51.984;21.208;2023-01-29T05:10:27;100963.19;;;-1.95;65.45
30949;BME280;17637;51.984;21.208;2023-01-29T05:13:02;100984.31;;;-1.84;64.79
30949;BME280;17637;51.984;21.208;2023-01-29T05:15:43;100964.81;;;-1.90;64.93
30949;BME280;17637;51.984;21.208;2023-01-29T05:18:20;100994.28;;;-1.66;65.20
30949;BME280;17637;51.984;21.208;2023-01-29T05:20:54;101002.03;;;-1.75;64.61
30949;BME280;17637;51.984;21.208;2023-01-29T05:23:27;100991.00;;;-1.77;65.28
30949;BME280;17637;51.984;21.208;2023-01-29T05:25:59;101001.19;;;-1.77;64.89
30949;BME280;17637;51.984;21.208;2023-01-29T05:28:31;100989.50;;;-1.95;65.45
30949;BME280;17637;51.984;21.208;2023-01-29T05:31:03;100972.63;;;-2.07;65.22
30949;BME280;17637;51.984;21.208;2023-01-29T05:33:35;100994.34;;;-1.69;65.36
30949;BME280;17637;51.984;21.208;2023-01-29T05:36:08;100986.69;;;-1.69;65.12
30949;BME280;17637;51.984;21.208;2023-01-29T05:38:40;100962.41;;;-2.02;65.19
30949;BME280;17637;51.984;21.208;2023-01-29T05:41:12;100982.56;;;-1.79;65.32
30949;BME280;17637;51.984;21.208;2023-01-29T05:43:44;100984.25;;;-1.81;65.47
30949;BME280;17637;51.984;21.208;2023-01-29T05:46:15;100960.69;;;-2.02;65.43
30949;BME280;17637;51.984;21.208;2023-01-29T05:48:47;100961.41;;;-1.86;65.35
30949;BME280;17637;51.984;21.208;2023-01-29T05:51:20;100946.25;;;-2.00;65.40
30949;BME280;17637;51.984;21.208;2023-01-29T05:53:52;100968.91;;;-1.75;65.59
30949;BME280;17637;51.984;21.208;2023-01-29T05:56:24;100981.63;;;-1.70;65.14
30949;BME280;17637;51.984;21.208;2023-01-29T05:58:56;100977.34;;;-1.70;65.54
30949;BME280;17637;51.984;21.208;2023-01-29T06:01:28;100969.91;;;-1.88;65.44
30949;BME280;17637;51.984;21.208;2023-01-29T06:04:00;100966.41;;;-1.78;65.57
30949;BME280;17637;51.984;21.208;2023-01-29T06:06:32;100892.97;;;-2.21;65.57
30949;BME280;17637;51.984;21.208;2023-01-29T06:09:04;100971.41;;;-1.69;65.21
30949;BME280;17637;51.984;21.208;2023-01-29T06:11:37;100967.03;;;-1.57;65.43
30949;BME280;17637;51.984;21.208;2023-01-29T06:14:09;100984.00;;;-1.55;64.83
30949;BME280;17637;51.984;21.208;2023-01-29T06:16:41;100950.25;;;-1.75;65.11
30949;BME280;17637;51.984;21.208;2023-01-29T06:19:13;100921.56;;;-1.94;65.12
30949;BME280;17637;51.984;21.208;2023-01-29T06:21:45;100973.91;;;-1.67;65.07
30949;BME280;17637;51.984;21.208;2023-01-29T06:24:17;100979.09;;;-1.75;65.19
30949;BME280;17637;51.984;21.208;2023-01-29T06:26:49;100962.19;;;-1.80;65.66
30949;BME280;17637;51.984;21.208;2023-01-29T06:29:21;100927.63;;;-2.05;65.44
30949;BME280;17637;51.984;21.208;2023-01-29T06:31:53;100980.03;;;-1.82;65.47
30949;BME280;17637;51.984;21.208;2023-01-29T06:34:25;100985.78;;;-1.65;65.34
30949;BME280;17637;51.984;21.208;2023-01-29T06:36:57;100962.97;;;-1.75;65.45
30949;BME280;17637;51.984;21.208;2023-01-29T06:39:29;100985.91;;;-1.74;65.54
30949;BME280;17637;51.984;21.208;2023-01-29T06:42:01;100994.22;;;-1.59;65.63
30949;BME280;17637;51.984;21.208;2023-01-29T06:44:33;101003.53;;;-1.57;65.10
30949;BME280;17637;51.984;21.208;2023-01-29T06:47:05;100976.44;;;-1.66;65.05
30949;BME280;17637;51.984;21.208;2023-01-29T06:49:37;100968.06;;;-1.77;65.28
30949;BME280;17637;51.984;21.208;2023-01-29T06:52:11;100987.31;;;-1.48;65.04
30949;BME280;17637;51.984;21.208;2023-01-29T06:54:43;100967.13;;;-1.65;65.36
30949;BME280;17637;51.984;21.208;2023-01-29T06:57:15;100983.84;;;-1.44;64.91
30949;BME280;17637;51.984;21.208;2023-01-29T06:59:47;100956.97;;;-1.70;64.54
30949;BME280;17637;51.984;21.208;2023-01-29T07:02:19;100938.50;;;-1.90;64.98
30949;BME280;17637;51.984;21.208;2023-01-29T07:04:52;100953.66;;;-1.78;65.06
30949;BME280;17637;51.984;21.208;2023-01-29T07:07:23;100996.81;;;-1.62;64.76
30949;BME280;17637;51.984;21.208;2023-01-29T07:09:55;100996.72;;;-1.53;64.74
30949;BME280;17637;51.984;21.208;2023-01-29T07:12:27;101003.50;;;-1.52;64.96
30949;BME280;17637;51.984;21.208;2023-01-29T07:14:59;100938.22;;;-1.66;64.37
30949;BME280;17637;51.984;21.208;2023-01-29T07:17:31;100954.31;;;-1.62;64.64
30949;BME280;17637;51.984;21.208;2023-01-29T07:20:04;100979.41;;;-1.26;64.05
30949;BME280;17637;51.984;21.208;2023-01-29T07:22:36;100976.78;;;-1.23;64.23
30949;BME280;17637;51.984;21.208;2023-01-29T07:25:08;100972.38;;;-1.10;64.17
30949;BME280;17637;51.984;21.208;2023-01-29T07:27:40;100957.19;;;-1.20;64.04
30949;BME280;17637;51.984;21.208;2023-01-29T07:30:13;100941.06;;;-1.20;63.86
30949;BME280;17637;51.984;21.208;2023-01-29T07:32:45;100960.34;;;-1.01;63.87
30949;BME280;17637;51.984;21.208;2023-01-29T07:35:17;100968.78;;;-0.95;64.16
30949;BME280;17637;51.984;21.208;2023-01-29T07:37:49;100960.47;;;-1.10;63.39
30949;BME280;17637;51.984;21.208;2023-01-29T07:40:22;100977.44;;;-1.06;64.00
30949;BME280;17637;51.984;21.208;2023-01-29T07:43:03;100962.06;;;-1.01;63.73
30949;BME280;17637;51.984;21.208;2023-01-29T07:45:37;100971.50;;;-1.06;63.91
30949;BME280;17637;51.984;21.208;2023-01-29T07:48:10;100964.59;;;-1.00;63.95
30949;BME280;17637;51.984;21.208;2023-01-29T07:50:44;100987.81;;;-1.20;63.40
30949;BME280;17637;51.984;21.208;2023-01-29T07:53:16;100974.00;;;-1.05;63.81
30949;BME280;17637;51.984;21.208;2023-01-29T07:55:48;100972.25;;;-1.00;63.99
30949;BME280;17637;51.984;21.208;2023-01-29T07:58:21;100985.00;;;-1.00;63.36
30949;BME280;17637;51.984;21.208;2023-01-29T08:00:53;100858.59;;;-1.85;63.32
30949;BME280;17637;51.984;21.208;2023-01-29T08:03:30;100977.44;;;-1.07;63.00
30949;BME280;17637;51.984;21.208;2023-01-29T08:06:03;100982.66;;;-1.15;63.47
30949;BME280;17637;51.984;21.208;2023-01-29T08:08:35;100963.03;;;-1.10;62.84
30949;BME280;17637;51.984;21.208;2023-01-29T08:11:07;100962.97;;;-1.07;62.92
30949;BME280;17637;51.984;21.208;2023-01-29T08:13:39;100957.75;;;-0.97;63.62
30949;BME280;17637;51.984;21.208;2023-01-29T08:16:11;100952.56;;;-0.91;62.66
30949;BME280;17637;51.984;21.208;2023-01-29T08:18:43;100945.66;;;-0.86;62.73
30949;BME280;17637;51.984;21.208;2023-01-29T08:21:18;100927.91;;;-0.92;63.03
30949;BME280;17637;51.984;21.208;2023-01-29T08:23:50;100938.19;;;-0.97;61.52
30949;BME280;17637;51.984;21.208;2023-01-29T08:26:22;100916.38;;;-1.20;62.67
30949;BME280;17637;51.984;21.208;2023-01-29T08:28:54;100949.75;;;-0.73;62.20
30949;BME280;17637;51.984;21.208;2023-01-29T08:31:26;100947.75;;;-0.54;62.38
30949;BME280;17637;51.984;21.208;2023-01-29T08:33:58;100917.66;;;-0.89;61.56
30949;BME280;17637;51.984;21.208;2023-01-29T08:36:30;100920.06;;;-0.80;61.75
30949;BME280;17637;51.984;21.208;2023-01-29T08:39:02;100896.50;;;-0.96;62.08
30949;BME280;17637;51.984;21.208;2023-01-29T08:41:34;100929.53;;;-0.87;62.14
30949;BME280;17637;51.984;21.208;2023-01-29T08:44:06;100939.56;;;-0.74;62.04
30949;BME280;17637;51.984;21.208;2023-01-29T08:46:38;100942.81;;;-0.66;62.38
30949;BME280;17637;51.984;21.208;2023-01-29T08:49:11;100905.69;;;-0.86;62.28
30949;BME280;17637;51.984;21.208;2023-01-29T08:51:43;100949.53;;;-0.59;62.02
30949;BME280;17637;51.984;21.208;2023-01-29T08:54:15;100951.44;;;-0.73;61.92
30949;BME280;17637;51.984;21.208;2023-01-29T08:56:47;100944.66;;;-0.74;62.12
30949;BME280;17637;51.984;21.208;2023-01-29T08:59:19;100935.38;;;-0.80;62.02
30949;BME280;17637;51.984;21.208;2023-01-29T09:01:53;100943.47;;;-0.53;61.21
30949;BME280;17637;51.984;21.208;2023-01-29T09:04:25;100941.59;;;-0.42;61.80
30949;BME280;17637;51.984;21.208;2023-01-29T09:06:57;100926.69;;;-0.67;61.50
30949;BME280;17637;51.984;21.208;2023-01-29T09:09:29;100940.13;;;-0.57;61.98
30949;BME280;17637;51.984;21.208;2023-01-29T09:12:01;100924.09;;;-0.65;61.96
30949;BME280;17637;51.984;21.208;2023-01-29T09:14:33;100871.63;;;-0.83;61.65
30949;BME280;17637;51.984;21.208;2023-01-29T09:17:05;100915.69;;;-0.73;61.39
30949;BME280;17637;51.984;21.208;2023-01-29T09:19:37;100880.56;;;-1.12;62.38
30949;BME280;17637;51.984;21.208;2023-01-29T09:22:09;100912.81;;;-0.53;61.46
30949;BME280;17637;51.984;21.208;2023-01-29T09:24:42;100862.13;;;-0.75;62.10
30949;BME280;17637;51.984;21.208;2023-01-29T09:27:14;100921.13;;;-0.40;62.14
30949;BME280;17637;51.984;21.208;2023-01-29T09:29:46;100911.06;;;-0.50;61.72
30949;BME280;17637;51.984;21.208;2023-01-29T09:32:18;100889.75;;;-0.47;62.15
30949;BME280;17637;51.984;21.208;2023-01-29T09:35:10;100863.28;;;-0.43;61.18
30949;BME280;17637;51.984;21.208;2023-01-29T09:37:42;100881.44;;;-0.13;61.29
30949;BME280;17637;51.984;21.208;2023-01-29T09:40:36;100868.09;;;-0.27;60.55
30949;BME280;17637;51.984;21.208;2023-01-29T09:43:16;100859.97;;;-0.03;60.98
30949;BME280;17637;51.984;21.208;2023-01-29T09:45:57;100860.69;;;0.04;60.48
30949;BME280;17637;51.984;21.208;2023-01-29T09:48:33;100856.53;;;0.00;60.61
30949;BME280;17637;51.984;21.208;2023-01-29T09:51:14;100837.34;;;0.21;60.10
30949;BME280;17637;51.984;21.208;2023-01-29T09:56:52;100860.25;;;-0.17;60.47
30949;BME280;17637;51.984;21.208;2023-01-29T09:59:29;100846.09;;;0.11;60.43
30949;BME280;17637;51.984;21.208;2023-01-29T10:02:10;100829.28;;;-0.01;60.52
30949;BME280;17637;51.984;21.208;2023-01-29T10:14:23;100847.38;;;0.30;60.88
30949;BME280;17637;51.984;21.208;2023-01-29T10:23:06;100832.00;;;0.32;60.70
30949;BME280;17637;51.984;21.208;2023-01-29T10:25:44;100810.78;;;0.28;60.86
30949;BME280;17637;51.984;21.208;2023-01-29T10:28:26;100800.56;;;0.66;59.69
30949;BME280;17637;51.984;21.208;2023-01-29T10:31:06;100816.09;;;0.58;59.45
30949;BME280;17637;51.984;21.208;2023-01-29T10:33:41;100810.72;;;0.31;59.53
30949;BME280;17637;51.984;21.208;2023-01-29T10:36:55;100831.56;;;0.11;60.28
30949;BME280;17637;51.984;21.208;2023-01-29T10:39:29;100793.41;;;0.04;61.15
30949;BME280;17637;51.984;21.208;2023-01-29T10:53:46;100819.31;;;0.27;61.63
30949;BME280;17637;51.984;21.208;2023-01-29T10:56:45;100808.56;;;0.11;61.84
30949;BME280;17637;51.984;21.208;2023-01-29T11:02:16;100791.03;;;0.35;61.45
30949;BME280;17637;51.984;21.208;2023-01-29T11:04:49;100776.47;;;0.39;60.94
30949;BME280;17637;51.984;21.208;2023-01-29T11:07:22;100755.69;;;0.15;61.39
30949;BME280;17637;51.984;21.208;2023-01-29T11:09:59;100793.53;;;0.37;61.57
30949;BME280;17637;51.984;21.208;2023-01-29T11:12:34;100782.75;;;0.24;61.29
30949;BME280;17637;51.984;21.208;2023-01-29T11:15:28;100797.34;;;0.19;62.28
30949;BME280;17637;51.984;21.208;2023-01-29T11:18:13;100786.13;;;0.26;63.12
30949;BME280;17637;51.984;21.208;2023-01-29T11:20:59;100781.03;;;0.24;63.21
30949;BME280;17637;51.984;21.208;2023-01-29T11:23:32;100775.44;;;0.46;62.80
30949;BME280;17637;51.984;21.208;2023-01-29T11:26:05;100766.19;;;0.40;63.58
30949;BME280;17637;51.984;21.208;2023-01-29T11:28:45;100739.25;;;0.25;63.36
30949;BME280;17637;51.984;21.208;2023-01-29T11:31:28;100765.94;;;0.51;63.23
30949;BME280;17637;51.984;21.208;2023-01-29T11:34:05;100743.09;;;0.43;62.96
30949;BME280;17637;51.984;21.208;2023-01-29T11:36:37;100739.63;;;0.47;63.00
30949;BME280;17637;51.984;21.208;2023-01-29T11:39:20;100764.84;;;0.63;63.30
30949;BME280;17637;51.984;21.208;2023-01-29T11:41:59;100758.38;;;0.46;63.86
30949;BME280;17637;51.984;21.208;2023-01-29T11:44:34;100719.84;;;0.18;63.67
30949;BME280;17637;51.984;21.208;2023-01-29T11:47:14;100729.19;;;0.55;64.29
30949;BME280;17637;51.984;21.208;2023-01-29T11:49:52;100740.16;;;0.60;64.18
30949;BME280;17637;51.984;21.208;2023-01-29T11:52:33;100726.31;;;0.68;63.79
30949;BME280;17637;51.984;21.208;2023-01-29T11:55:14;100711.13;;;0.61;63.73
30949;BME280;17637;51.984;21.208;2023-01-29T11:58:27;100721.00;;;0.41;64.39
30949;BME280;17637;51.984;21.208;2023-01-29T12:01:01;100714.38;;;0.34;64.23
30949;BME280;17637;51.984;21.208;2023-01-29T12:06:17;100708.75;;;0.55;64.96
30949;BME280;17637;51.984;21.208;2023-01-29T12:08:59;100706.09;;;0.58;64.47
30949;BME280;17637;51.984;21.208;2023-01-29T12:11:34;100690.75;;;0.58;64.31
30949;BME280;17637;51.984;21.208;2023-01-29T12:17:13;100669.13;;;0.36;65.00
30949;BME280;17637;51.984;21.208;2023-01-29T12:19:53;100666.72;;;0.29;65.08
30949;BME280;17637;51.984;21.208;2023-01-29T12:28:06;100667.53;;;0.31;65.95
30949;BME280;17637;51.984;21.208;2023-01-29T12:33:51;100659.34;;;0.53;66.50
30949;BME280;17637;51.984;21.208;2023-01-29T12:36:26;100662.50;;;0.63;66.66
30949;BME280;17637;51.984;21.208;2023-01-29T12:38:59;100642.44;;;0.46;66.29
30949;BME280;17637;51.984;21.208;2023-01-29T12:44:30;100675.63;;;0.49;66.73
30949;BME280;17637;51.984;21.208;2023-01-29T12:47:05;100664.38;;;0.20;67.19
30949;BME280;17637;51.984;21.208;2023-01-29T12:49:40;100663.00;;;0.43;67.36
30949;BME280;17637;51.984;21.208;2023-01-29T12:52:18;100661.94;;;0.52;67.03
30949;BME280;17637;51.984;21.208;2023-01-29T12:58:22;100656.16;;;0.07;67.99
30949;BME280;17637;51.984;21.208;2023-01-29T13:01:02;100646.31;;;0.28;67.72
30949;BME280;17637;51.984;21.208;2023-01-29T13:06:13;100623.63;;;0.15;67.97
30949;BME280;17637;51.984;21.208;2023-01-29T13:08:52;100622.75;;;0.15;68.13
30949;BME280;17637;51.984;21.208;2023-01-29T13:11:40;100638.44;;;0.36;68.08
30949;BME280;17637;51.984;21.208;2023-01-29T13:14:35;100620.44;;;0.06;68.45
30949;BME280;17637;51.984;21.208;2023-01-29T13:17:35;100645.53;;;0.26;68.01
30949;BME280;17637;51.984;21.208;2023-01-29T13:20:24;100604.38;;;0.01;68.23
30949;BME280;17637;51.984;21.208;2023-01-29T13:23:14;100630.44;;;0.15;68.63
30949;BME280;17637;51.984;21.208;2023-01-29T13:25:53;100627.66;;;-0.12;69.18
30949;BME280;17637;51.984;21.208;2023-01-29T13:28:25;100655.63;;;-0.06;69.22
30949;BME280;17637;51.984;21.208;2023-01-29T13:31:19;100652.00;;;0.03;69.26
30949;BME280;17637;51.984;21.208;2023-01-29T13:37:00;100654.16;;;-0.16;70.35
30949;BME280;17637;51.984;21.208;2023-01-29T13:39:38;100648.22;;;-0.18;71.04
30949;BME280;17637;51.984;21.208;2023-01-29T13:42:21;100655.19;;;-0.25;71.05
30949;BME280;17637;51.984;21.208;2023-01-29T13:45:00;100652.75;;;-0.29;71.83
30949;BME280;17637;51.984;21.208;2023-01-29T13:47:35;100650.16;;;-0.28;71.52
30949;BME280;17637;51.984;21.208;2023-01-29T13:52:55;100657.81;;;-0.28;72.84
30949;BME280;17637;51.984;21.208;2023-01-29T13:55:30;100650.31;;;-0.36;72.78
30949;BME280;17637;51.984;21.208;2023-01-29T13:58:19;100634.44;;;-0.50;73.84
30949;BME280;17637;51.984;21.208;2023-01-29T14:01:08;100624.63;;;-0.28;73.59
30949;BME280;17637;51.984;21.208;2023-01-29T14:03:45;100612.94;;;-0.02;72.93
30949;BME280;17637;51.984;21.208;2023-01-29T14:06:37;100623.22;;;-0.05;73.12
30949;BME280;17637;51.984;21.208;2023-01-29T14:17:28;100533.38;;;-0.98;74.21
30949;BME280;17637;51.984;21.208;2023-01-29T14:20:02;100618.19;;;-0.46;75.16
30949;BME280;17637;51.984;21.208;2023-01-29T14:22:55;100609.59;;;-0.42;75.03
30949;BME280;17637;51.984;21.208;2023-01-29T14:25:34;100630.22;;;-0.51;76.01
30949;BME280;17637;51.984;21.208;2023-01-29T14:28:15;100638.25;;;-0.29;75.15
30949;BME280;17637;51.984;21.208;2023-01-29T14:30:51;100643.75;;;-0.47;76.01
30949;BME280;17637;51.984;21.208;2023-01-29T14:33:42;100642.13;;;-0.52;76.14
30949;BME280;17637;51.984;21.208;2023-01-29T14:36:15;100645.13;;;-0.73;76.47
30949;BME280;17637;51.984;21.208;2023-01-29T14:38:48;100640.28;;;-0.45;76.29
30949;BME280;17637;51.984;21.208;2023-01-29T14:47:17;100649.50;;;-0.78;77.89
30949;BME280;17637;51.984;21.208;2023-01-29T14:49:54;100651.41;;;-0.46;77.13
30949;BME280;17637;51.984;21.208;2023-01-29T14:52:41;100633.84;;;-0.61;77.64
30949;BME280;17637;51.984;21.208;2023-01-29T14:55:30;100644.81;;;-0.58;77.43
30949;BME280;17637;51.984;21.208;2023-01-29T14:58:12;100633.84;;;-0.61;77.48
30949;BME280;17637;51.984;21.208;2023-01-29T15:00:49;100626.16;;;-0.60;77.60
30949;BME280;17637;51.984;21.208;2023-01-29T15:06:16;100618.66;;;-0.28;76.72
30949;BME280;17637;51.984;21.208;2023-01-29T15:08:55;100607.91;;;-0.43;77.06
30949;BME280;17637;51.984;21.208;2023-01-29T15:11:36;100622.22;;;-0.36;77.26
30949;BME280;17637;51.984;21.208;2023-01-29T15:19:40;100631.00;;;-0.49;77.57
30949;BME280;17637;51.984;21.208;2023-01-29T15:22:20;100619.38;;;-0.61;78.30
30949;BME280;17637;51.984;21.208;2023-01-29T15:25:09;100629.53;;;-0.59;78.36
30949;BME280;17637;51.984;21.208;2023-01-29T15:27:44;100620.50;;;-0.76;78.42
30949;BME280;17637;51.984;21.208;2023-01-29T15:30:24;100611.63;;;-0.58;78.71
30949;BME280;17637;51.984;21.208;2023-01-29T15:32:58;100570.22;;;-1.13;79.08
30949;BME280;17637;51.984;21.208;2023-01-29T15:35:37;100622.16;;;-0.73;78.95
30949;BME280;17637;51.984;21.208;2023-01-29T15:38:16;100612.09;;;-0.81;79.54
30949;BME280;17637;51.984;21.208;2023-01-29T15:43:34;100608.66;;;-0.78;79.20
30949;BME280;17637;51.984;21.208;2023-01-29T15:46:21;100606.75;;;-0.69;79.59
30949;BME280;17637;51.984;21.208;2023-01-29T15:48:59;100594.81;;;-0.68;78.99
30949;BME280;17637;51.984;21.208;2023-01-29T15:51:32;100549.94;;;-0.77;78.48
30949;BME280;17637;51.984;21.208;2023-01-29T15:54:09;100581.88;;;-0.59;78.64
30949;BME280;17637;51.984;21.208;2023-01-29T15:56:49;100537.41;;;-0.88;78.56
30949;BME280;17637;51.984;21.208;2023-01-29T15:59:25;100587.00;;;-0.60;78.98
30949;BME280;17637;51.984;21.208;2023-01-29T16:01:57;100518.69;;;-1.29;79.42